Time;durP1;ratioP1;P1;durP2;ratioP2;P2;SDS_P1;SDS_P2;PMS_P1;PMS_P2;Temp;Humidity;BMP_temperature;BMP_pressure;BME280_temperature;BME280_humidity;BME280_pressure;Samples;Min_cycle;Max_cycle;Signal;HPM_P1;HPM_P2
2023/07/26 00:03:41;;;;;;;3.63;1.85;;;;;;;14.56;56.54;99448.94;10430092;28;20602;-58
2023/07/26 00:08:43;;;;;;;2.15;1.10;;;;;;;14.51;56.43;99456.38;10428907;28;20504;-58
2023/07/26 00:13:46;;;;;;;1.27;1.00;;;;;;;14.51;56.41;99451.94;10429325;28;20060;-58
2023/07/26 00:18:48;;;;;;;1.83;1.35;;;;;;;14.45;56.22;99439.25;10429248;28;20131;-58
2023/07/26 00:23:50;;;;;;;2.45;0.98;;;;;;;14.36;56.29;99453.19;10428282;28;20044;-58
2023/07/26 00:28:52;;;;;;;2.47;0.90;;;;;;;14.24;56.43;99450.75;10429258;28;20049;-57
2023/07/26 00:33:54;;;;;;;0.98;0.75;;;;;;;14.12;56.36;99452.59;10429482;28;20053;-57
2023/07/26 00:38:56;;;;;;;1.83;1.00;;;;;;;13.99;56.77;99454.53;10428853;28;20041;-58
2023/07/26 00:43:58;;;;;;;1.83;0.90;;;;;;;13.92;56.86;99466.53;10427502;28;20092;-58
2023/07/26 00:49:01;;;;;;;0.88;0.85;;;;;;;13.85;57.22;99470.59;10427284;28;20076;-58
2023/07/26 00:54:04;;;;;;;1.75;1.10;;;;;;;13.72;57.83;99468.09;10428458;28;20060;-57
2023/07/26 00:59:06;;;;;;;0.70;0.70;;;;;;;13.67;58.01;99470.28;10426724;28;20135;-58
2023/07/26 01:04:08;;;;;;;2.58;1.20;;;;;;;13.69;58.17;99468.38;10427877;28;20052;-57
2023/07/26 01:09:36;;;;;;;1.08;1.00;;;;;;;13.75;58.81;99465.25;10426796;28;20224;-58
2023/07/26 01:14:46;;;;;;;0.90;0.90;;;;;;;13.77;58.95;99473.84;10456997;28;20049;-57
2023/07/26 01:19:49;;;;;;;3.72;1.10;;;;;;;13.60;58.43;99482.22;10425931;28;20509;-57
2023/07/26 01:24:51;;;;;;;1.40;1.30;;;;;;;13.47;58.87;99472.81;10426482;28;20513;-57
2023/07/26 01:29:56;;;;;;;1.08;0.98;;;;;;;13.49;58.90;99482.25;10426498;28;20516;-58
2023/07/26 01:34:58;;;;;;;1.38;1.00;;;;;;;13.55;58.77;99475.66;10428749;28;20530;-57
2023/07/26 01:40:05;;;;;;;0.93;0.82;;;;;;;13.56;59.01;99482.56;10424885;28;20056;-58
2023/07/26 01:45:09;;;;;;;3.28;1.63;;;;;;;13.53;58.96;99478.44;10426783;28;20208;-57
2023/07/26 01:50:11;;;;;;;1.25;0.95;;;;;;;13.62;59.08;99482.09;10426617;28;20051;-58
2023/07/26 01:55:13;;;;;;;1.83;1.10;;;;;;;13.69;59.17;99480.66;10407659;28;20115;-57
2023/07/26 02:00:15;;;;;;;1.27;1.00;;;;;;;13.68;59.32;99482.44;10424274;28;20495;-58
2023/07/26 02:05:17;;;;;;;1.02;0.90;;;;;;;13.61;59.43;99483.91;10432690;28;20041;-58
2023/07/26 02:10:19;;;;;;;1.10;1.00;;;;;;;13.64;59.34;99490.69;10464744;28;20107;-58
2023/07/26 02:15:21;;;;;;;0.88;0.80;;;;;;;13.69;59.10;99492.03;10432564;28;20106;-57
2023/07/26 02:20:23;;;;;;;0.90;0.90;;;;;;;13.75;59.15;99494.16;10431955;28;20474;-58
2023/07/26 02:25:25;;;;;;;1.92;0.90;;;;;;;13.83;58.77;99495.31;10433067;28;20059;-58
2023/07/26 02:30:31;;;;;;;1.38;1.08;;;;;;;13.81;59.11;99498.09;10428523;28;20041;-57
2023/07/26 02:35:33;;;;;;;1.02;1.00;;;;;;;13.83;59.02;99495.31;10431632;28;20060;-58
2023/07/26 02:40:38;;;;;;;1.02;0.90;;;;;;;13.81;58.95;99495.44;10432498;28;20057;-58
2023/07/26 02:45:40;;;;;;;1.17;0.80;;;;;;;13.78;58.92;99493.91;10464061;28;20132;-58
2023/07/26 02:50:42;;;;;;;3.17;1.30;;;;;;;13.81;59.10;99499.88;10431796;28;20064;-58
2023/07/26 02:55:44;;;;;;;2.17;1.05;;;;;;;13.84;58.95;99505.72;10439766;28;20057;-57
2023/07/26 03:00:50;;;;;;;0.88;0.85;;;;;;;13.82;58.90;99512.88;10420416;28;20329;-58
2023/07/26 03:05:52;;;;;;;1.00;0.90;;;;;;;13.84;58.60;99510.97;10426450;28;20182;-57
2023/07/26 03:10:55;;;;;;;0.80;0.80;;;;;;;13.87;58.68;99518.63;10417634;28;20053;-58
2023/07/26 03:15:57;;;;;;;1.67;1.00;;;;;;;13.88;58.55;99512.38;10433063;28;20140;-58
2023/07/26 03:20:59;;;;;;;1.30;1.08;;;;;;;13.90;58.50;99520.19;10432979;28;20148;-58
2023/07/26 03:26:01;;;;;;;1.00;0.90;;;;;;;13.83;58.70;99522.44;10429488;28;20608;-58
2023/07/26 03:31:03;;;;;;;1.35;1.00;;;;;;;13.85;58.68;99519.69;10464106;28;20132;-58
2023/07/26 03:36:05;;;;;;;1.15;0.90;;;;;;;13.87;58.83;99531.75;10414927;28;20440;-57
2023/07/26 03:41:07;;;;;;;4.38;1.48;;;;;;;13.78;59.15;99528.06;10431677;28;20125;-58
2023/07/26 03:46:09;;;;;;;3.83;1.00;;;;;;;13.71;59.36;99541.81;10431660;28;20197;-58
2023/07/26 03:51:12;;;;;;;1.65;1.05;;;;;;;13.64;59.75;99535.34;10431868;28;20064;-57
2023/07/26 03:56:14;;;;;;;1.90;1.02;;;;;;;13.75;59.94;99527.47;10461993;28;20080;-58
2023/07/26 04:01:16;;;;;;;3.47;1.10;;;;;;;13.69;60.48;99522.72;10431400;28;20053;-58
2023/07/26 04:06:18;;;;;;;1.90;1.02;;;;;;;13.73;60.47;99530.25;10429153;28;20133;-58
2023/07/26 04:11:20;;;;;;;0.93;0.90;;;;;;;13.72;60.64;99532.97;10431229;28;20469;-57
2023/07/26 04:16:22;;;;;;;2.50;0.93;;;;;;;13.67;60.49;99535.97;10430278;28;20466;-57
2023/07/26 04:21:25;;;;;;;0.95;0.88;;;;;;;13.63;60.79;99534.53;10431168;28;20150;-57
2023/07/26 04:26:27;;;;;;;4.13;1.23;;;;;;;13.65;61.22;99540.53;10429749;28;20049;-57
2023/07/26 04:31:29;;;;;;;1.02;0.75;;;;;;;13.65;60.89;99543.16;10430870;28;20485;-58
2023/07/26 04:36:31;;;;;;;1.20;1.10;;;;;;;13.57;61.06;99544.69;10461099;28;20212;-57
2023/07/26 04:41:33;;;;;;;1.00;0.90;;;;;;;13.50;61.41;99549.59;10424859;28;20200;-58
2023/07/26 04:46:35;;;;;;;1.13;0.90;;;;;;;13.64;61.00;99548.50;10423837;28;20099;-58
2023/07/26 04:51:37;;;;;;;1.85;0.93;;;;;;;13.69;61.21;99549.84;10424784;28;20044;-58
2023/07/26 04:56:40;;;;;;;2.72;1.27;;;;;;;13.64;61.00;99564.25;10417734;28;20040;-60
2023/07/26 05:01:42;;;;;;;1.33;1.00;;;;;;;13.65;61.08;99576.47;10427569;28;20666;-59
2023/07/26 05:06:44;;;;;;;1.20;1.05;;;;;;;13.52;61.76;99568.69;10418748;28;20382;-59
2023/07/26 05:11:46;;;;;;;1.13;1.02;;;;;;;13.66;61.79;99570.22;10421065;28;20037;-59
2023/07/26 05:16:48;;;;;;;1.80;1.10;;;;;;;13.79;61.36;99560.44;10405798;28;20045;-62
2023/07/26 05:21:50;;;;;;;1.98;0.90;;;;;;;13.82;61.57;99575.16;10421165;28;20079;-61
2023/07/26 05:26:52;;;;;;;1.65;1.10;;;;;;;13.92;61.37;99579.56;10419763;28;20053;-61
2023/07/26 05:31:55;;;;;;;1.23;0.93;;;;;;;13.93;61.37;99578.59;10419163;28;20091;-61
2023/07/26 05:36:57;;;;;;;1.92;1.27;;;;;;;13.86;61.53;99587.09;10418704;28;20187;-62
2023/07/26 05:41:59;;;;;;;1.13;0.90;;;;;;;13.71;61.75;99592.59;10419808;28;20416;-62
2023/07/26 05:47:01;;;;;;;1.45;1.10;;;;;;;13.71;61.63;99589.13;10413980;28;20132;-61
2023/07/26 05:52:03;;;;;;;1.23;0.90;;;;;;;13.64;62.09;99599.28;10420141;28;20033;-62
2023/07/26 05:57:06;;;;;;;0.93;0.82;;;;;;;13.62;62.09;99593.28;10417011;28;20585;-62
2023/07/26 06:02:08;;;;;;;2.55;1.67;;;;;;;13.74;61.78;99596.75;10419395;28;20561;-62
2023/07/26 06:07:10;;;;;;;3.53;1.30;;;;;;;13.89;62.21;99592.09;10415555;28;20037;-60
2023/07/26 06:12:12;;;;;;;1.33;0.90;;;;;;;14.00;61.60;99598.19;10420721;28;20084;-59
2023/07/26 06:17:16;;;;;;;1.48;1.15;;;;;;;14.30;61.27;99601.00;10409431;28;20049;-60
2023/07/26 06:22:18;;;;;;;3.13;1.40;;;;;;;14.48;60.79;99602.16;10414782;28;20075;-60
2023/07/26 06:27:28;;;;;;;1.98;1.20;;;;;;;14.42;61.28;99607.06;10415553;28;20071;-60
2023/07/26 06:32:30;;;;;;;1.60;1.17;;;;;;;14.52;60.50;99614.16;10413066;28;20458;-60
2023/07/26 06:37:32;;;;;;;6.53;1.67;;;;;;;14.61;60.55;99607.31;10412579;28;20214;-60
2023/07/26 06:42:34;;;;;;;1.45;1.30;;;;;;;14.69;60.17;99606.66;10419161;28;20041;-60
2023/07/26 06:47:36;;;;;;;4.53;2.22;;;;;;;14.79;60.16;99607.59;10422492;28;20045;-60
2023/07/26 06:52:38;;;;;;;1.20;1.10;;;;;;;14.95;59.93;99611.47;10414573;28;20311;-60
2023/07/26 06:57:40;;;;;;;1.50;1.00;;;;;;;15.48;58.74;99614.03;10418747;28;20629;-60
2023/07/26 07:02:42;;;;;;;1.55;1.23;;;;;;;15.91;58.16;99610.28;10411193;28;20059;-60
2023/07/26 07:07:44;;;;;;;2.70;1.55;;;;;;;16.39;56.74;99602.47;10422614;28;20296;-60
2023/07/26 07:12:46;;;;;;;1.35;1.15;;;;;;;16.89;56.15;99600.63;10415790;28;20438;-60
2023/07/26 07:17:48;;;;;;;2.97;1.50;;;;;;;17.30;55.55;99602.91;10418579;28;20084;-60
2023/07/26 07:23:04;;;;;;;1.75;1.20;;;;;;;17.38;55.02;99615.47;10416394;28;20509;-60
2023/07/26 07:28:06;;;;;;;2.28;1.45;;;;;;;17.68;54.27;99609.97;10421924;28;20481;-60
2023/07/26 07:33:10;;;;;;;1.83;1.20;;;;;;;18.25;53.48;99611.53;10390689;28;20048;-60
2023/07/26 07:38:12;;;;;;;1.60;1.20;;;;;;;18.84;52.45;99606.53;10422046;28;20404;-60
2023/07/26 07:43:14;;;;;;;0.82;0.82;;;;;;;18.93;51.65;99600.31;10426496;28;20368;-60
2023/07/26 07:48:16;;;;;;;2.22;1.20;;;;;;;19.97;50.12;99602.09;10427049;28;20049;-60
2023/07/26 07:53:18;;;;;;;2.22;1.10;;;;;;;20.48;48.16;99604.56;10426064;28;20055;-60
2023/07/26 07:58:20;;;;;;;2.13;1.00;;;;;;;20.33;48.69;99605.38;10425150;28;20059;-60
2023/07/26 08:03:22;;;;;;;1.80;1.30;;;;;;;20.32;48.70;99609.00;10426089;28;20102;-60
2023/07/26 08:08:24;;;;;;;2.58;0.90;;;;;;;20.99;47.44;99614.97;10427728;28;20055;-61
2023/07/26 08:13:29;;;;;;;1.30;1.00;;;;;;;21.02;47.00;99611.16;10422496;28;20047;-61
2023/07/26 08:18:31;;;;;;;1.27;1.00;;;;;;;21.30;46.36;99611.66;10429336;28;20463;-62
2023/07/26 08:23:33;;;;;;;2.30;1.70;;;;;;;21.57;45.72;99611.31;10412919;28;20372;-63
2023/07/26 08:28:36;;;;;;;0.95;0.90;;;;;;;22.37;44.67;99605.72;10417544;28;20224;-61
2023/07/26 08:33:38;;;;;;;3.63;1.20;;;;;;;22.99;42.94;99601.19;10413893;28;20056;-60
2023/07/26 08:38:40;;;;;;;1.45;0.98;;;;;;;22.95;42.19;99599.88;10414764;28;20105;-61
2023/07/26 08:43:45;;;;;;;1.30;0.93;;;;;;;22.87;42.41;99597.28;10410651;28;20052;-60
2023/07/26 08:48:48;;;;;;;1.05;0.90;;;;;;;22.56;42.35;99602.63;10417545;28;20505;-60
2023/07/26 08:53:51;;;;;;;1.92;0.82;;;;;;;21.78;42.76;99598.31;10411506;28;20132;-60
2023/07/26 08:58:53;;;;;;;0.90;0.90;;;;;;;21.41;44.16;99600.72;10417340;28;20041;-60
2023/07/26 09:03:55;;;;;;;2.60;1.33;;;;;;;21.32;44.17;99605.19;10414919;28;20124;-60
2023/07/26 09:09:00;;;;;;;2.63;1.45;;;;;;;21.48;43.33;99602.50;10415439;28;20048;-61
2023/07/26 09:14:03;;;;;;;4.90;1.48;;;;;;;21.51;43.89;99604.84;10408933;28;20053;-60
2023/07/26 09:19:09;;;;;;;1.65;1.02;;;;;;;22.08;42.26;99589.56;10412121;28;20417;-60
2023/07/26 09:24:12;;;;;;;1.27;1.00;;;;;;;22.94;41.22;99581.41;10451916;28;20048;-60
2023/07/26 09:29:16;;;;;;;1.55;1.05;;;;;;;22.43;40.75;99580.22;10419308;28;20048;-60
2023/07/26 09:34:19;;;;;;;2.83;1.00;;;;;;;22.09;40.97;99582.41;10414907;28;20051;-61
2023/07/26 09:39:25;;;;;;;1.05;0.80;;;;;;;21.75;41.13;99585.31;10420837;28;20374;-60
2023/07/26 09:44:28;;;;;;;1.80;1.00;;;;;;;21.30;42.10;99585.03;10418567;28;20060;-60
2023/07/26 09:49:31;;;;;;;1.52;0.90;;;;;;;21.49;42.28;99598.88;10420373;28;20039;-60
2023/07/26 09:54:36;;;;;;;1.00;0.90;;;;;;;21.34;42.39;99610.34;10420407;28;20205;-60
2023/07/26 09:59:43;;;;;;;2.03;1.10;;;;;;;20.61;43.05;99620.91;10405873;28;20404;-60
2023/07/26 10:04:50;;;;;;;3.25;1.20;;;;;;;20.00;43.83;99628.28;10403582;28;20118;-60
2023/07/26 10:10:01;;;;;;;1.52;1.02;;;;;;;19.14;46.36;99656.53;10421427;28;20056;-60
2023/07/26 10:15:06;;;;;;;2.65;1.55;;;;;;;18.14;49.48;99657.53;10419984;28;20249;-60
2023/07/26 10:20:12;;;;;;;1.30;0.90;;;;;;;17.46;51.50;99642.03;10420441;28;20056;-60
2023/07/26 10:25:19;;;;;;;3.25;1.20;;;;;;;17.16;52.96;99658.84;10419610;28;20033;-60
2023/07/26 10:30:25;;;;;;;1.85;0.90;;;;;;;17.51;52.84;99637.97;10421321;28;20595;-62
2023/07/26 10:35:34;;;;;;;1.83;1.00;;;;;;;17.97;52.70;99631.88;10405194;28;20135;-62
2023/07/26 10:40:40;;;;;;;1.48;1.00;;;;;;;19.06;50.38;99632.59;10416223;28;20107;-61
2023/07/26 10:45:44;;;;;;;1.83;1.10;;;;;;;19.89;49.27;99625.91;10418979;28;20037;-60
2023/07/26 10:50:46;;;;;;;3.00;1.08;;;;;;;20.49;47.87;99619.53;10417646;28;20057;-62
2023/07/26 10:55:50;;;;;;;1.13;0.80;;;;;;;20.86;46.58;99616.47;10419557;28;20079;-62
2023/07/26 11:01:03;;;;;;;2.05;1.00;;;;;;;20.96;45.60;99602.03;10420757;28;20122;-62
2023/07/26 11:06:05;;;;;;;0.80;0.80;;;;;;;21.14;44.82;99599.19;10419130;28;20051;-61
2023/07/26 11:11:07;;;;;;;1.35;0.85;;;;;;;21.17;43.45;99590.06;10420697;28;20144;-61
2023/07/26 11:16:09;;;;;;;1.20;0.90;;;;;;;21.49;43.71;99587.38;10426493;28;20041;-61
2023/07/26 11:21:17;;;;;;;3.35;1.48;;;;;;;21.46;43.37;99585.88;10425898;28;20045;-60
2023/07/26 11:26:20;;;;;;;1.27;0.70;;;;;;;20.92;43.23;99581.25;10425237;28;20055;-61
2023/07/26 11:31:22;;;;;;;0.88;0.85;;;;;;;20.88;43.46;99586.06;10430205;28;20401;-61
2023/07/26 11:36:25;;;;;;;1.00;0.77;;;;;;;20.63;43.85;99584.38;10427053;28;20078;-60
2023/07/26 11:41:27;;;;;;;1.08;0.73;;;;;;;20.49;43.50;99582.34;10429198;28;20044;-62
2023/07/26 11:46:29;;;;;;;1.35;0.85;;;;;;;20.24;43.91;99575.28;10425384;28;20123;-60
2023/07/26 11:51:32;;;;;;;0.77;0.73;;;;;;;20.36;44.03;99571.34;10425833;28;20288;-61
2023/07/26 11:56:37;;;;;;;0.57;0.57;;;;;;;20.57;43.20;99585.00;10423867;28;20048;-61
2023/07/26 12:01:39;;;;;;;1.75;0.88;;;;;;;20.86;42.00;99569.47;10428939;28;20574;-60
2023/07/26 12:06:44;;;;;;;1.67;0.75;;;;;;;21.17;41.18;99568.78;10423066;28;20311;-61
2023/07/26 12:11:56;;;;;;;1.15;0.70;;;;;;;21.32;40.97;99570.63;10427438;28;20057;-61
2023/07/26 12:17:01;;;;;;;1.42;0.80;;;;;;;21.64;40.18;99575.06;10426451;28;20057;-61
2023/07/26 12:22:04;;;;;;;2.17;1.10;;;;;;;22.25;39.48;99572.47;10428905;28;20060;-61
2023/07/26 12:27:06;;;;;;;1.02;0.70;;;;;;;22.30;38.21;99567.47;10423394;28;20049;-61
2023/07/26 12:32:12;;;;;;;0.50;0.50;;;;;;;22.16;38.54;99560.22;10423943;28;20488;-61
2023/07/26 12:37:14;;;;;;;1.05;0.73;;;;;;;21.99;38.38;99571.91;10419119;28;20484;-61
2023/07/26 12:42:16;;;;;;;1.63;0.73;;;;;;;22.17;37.92;99561.88;10428385;28;20382;-61
2023/07/26 12:47:18;;;;;;;1.40;0.80;;;;;;;22.29;38.30;99559.66;10425634;28;20148;-60
2023/07/26 12:52:31;;;;;;;1.23;0.80;;;;;;;22.59;37.50;99567.63;10423900;28;20045;-61
2023/07/26 12:57:34;;;;;;;3.13;1.00;;;;;;;22.23;37.50;99576.34;10424937;28;20060;-60
2023/07/26 13:02:36;;;;;;;2.35;0.80;;;;;;;21.65;39.37;99604.16;10424105;28;20568;-60
2023/07/26 13:07:38;;;;;;;1.98;1.27;;;;;;;20.05;42.70;99636.63;10456507;28;20839;-60
2023/07/26 13:12:40;;;;;;;3.92;1.30;;;;;;;18.79;46.36;99639.78;10456482;28;20751;-60
2023/07/26 13:17:47;;;;;;;0.65;0.60;;;;;;;18.46;49.35;99622.72;10423373;28;20500;-60
2023/07/26 13:22:49;;;;;;;1.38;0.70;;;;;;;17.97;49.36;99638.97;10423242;28;20053;-60
2023/07/26 13:27:51;;;;;;;0.73;0.73;;;;;;;18.40;49.38;99644.50;10424946;28;20448;-60
2023/07/26 13:32:53;;;;;;;2.95;1.02;;;;;;;18.73;50.45;99641.19;10418591;28;20071;-60
2023/07/26 13:37:56;;;;;;;1.40;1.00;;;;;;;18.52;51.07;99638.81;10423102;28;20401;-60
2023/07/26 13:42:59;;;;;;;0.57;0.57;;;;;;;18.65;52.11;99639.31;10419485;28;20064;-60
2023/07/26 13:48:01;;;;;;;1.42;0.80;;;;;;;18.36;54.73;99643.13;10423287;28;20066;-60
2023/07/26 13:53:04;;;;;;;1.02;0.77;;;;;;;18.49;52.46;99649.72;10419924;28;20175;-60
2023/07/26 13:58:06;;;;;;;1.10;0.70;;;;;;;18.63;52.22;99661.63;10420190;28;20140;-60
2023/07/26 14:03:08;;;;;;;0.80;0.77;;;;;;;17.96;55.34;99695.47;10422346;28;20106;-60
2023/07/26 14:08:11;;;;;;;2.67;0.70;;;;;;;17.34;54.18;99723.31;10423701;28;20045;-60
2023/07/26 14:13:16;;;;;;;0.65;0.60;;;;;;;17.15;54.24;99722.41;10419934;28;20372;-60
2023/07/26 14:18:18;;;;;;;0.98;0.68;;;;;;;16.97;54.51;99703.78;10420081;28;20053;-60
2023/07/26 14:23:20;;;;;;;0.63;0.60;;;;;;;16.97;55.87;99711.72;10421548;28;20164;-60
2023/07/26 14:28:23;;;;;;;1.27;0.90;;;;;;;17.38;54.65;99711.47;10420644;28;20744;-60
2023/07/26 14:33:25;;;;;;;1.35;0.70;;;;;;;17.71;54.08;99713.66;10418542;28;20851;-60
2023/07/26 14:38:27;;;;;;;1.40;0.63;;;;;;;18.25;53.71;99699.75;10453383;28;20049;-60
2023/07/26 14:43:29;;;;;;;0.82;0.70;;;;;;;18.44;53.23;99691.69;10418622;28;20135;-60
2023/07/26 14:48:31;;;;;;;1.80;1.05;;;;;;;18.48;53.74;99689.59;10408781;28;20779;-60
2023/07/26 14:53:33;;;;;;;1.25;0.90;;;;;;;18.50;53.70;99688.47;10426480;28;20476;-60
2023/07/26 14:58:35;;;;;;;0.60;0.60;;;;;;;18.46;53.72;99688.94;10432166;28;20057;-60
2023/07/26 15:03:37;;;;;;;1.00;0.70;;;;;;;18.59;53.65;99690.22;10428996;28;20478;-60
2023/07/26 15:08:40;;;;;;;2.40;0.70;;;;;;;18.56;53.59;99687.06;10427407;28;20049;-60
2023/07/26 15:13:42;;;;;;;1.20;0.80;;;;;;;18.71;53.25;99679.44;10413665;28;20037;-60
2023/07/26 15:18:44;;;;;;;0.60;0.60;;;;;;;18.75;52.74;99681.63;10427449;28;20378;-60
2023/07/26 15:23:52;;;;;;;0.75;0.75;;;;;;;18.81;52.13;99683.66;10425510;28;20417;-60
2023/07/26 15:28:54;;;;;;;1.98;1.13;;;;;;;18.89;51.83;99678.44;10428001;28;20052;-60
2023/07/26 15:33:56;;;;;;;0.63;0.60;;;;;;;18.94;51.82;99667.41;10405158;28;20059;-60
2023/07/26 15:38:58;;;;;;;3.25;0.93;;;;;;;19.12;51.46;99658.50;10428182;28;20045;-60
2023/07/26 15:44:00;;;;;;;0.95;0.75;;;;;;;19.33;51.46;99666.13;10427229;28;20426;-60
2023/07/26 15:49:05;;;;;;;1.05;0.80;;;;;;;19.50;51.09;99662.66;10425936;28;20421;-60
2023/07/26 15:54:07;;;;;;;0.68;0.68;;;;;;;19.56;50.82;99653.22;10424932;28;20051;-60
2023/07/26 15:59:09;;;;;;;1.27;0.95;;;;;;;19.43;50.39;99653.63;10425971;28;20241;-60
2023/07/26 16:04:11;;;;;;;1.27;0.88;;;;;;;19.33;50.24;99656.38;10425066;28;20395;-60
2023/07/26 16:09:21;;;;;;;1.20;0.90;;;;;;;19.58;50.26;99653.91;10429450;28;20131;-60
2023/07/26 16:14:26;;;;;;;1.58;0.95;;;;;;;19.81;49.53;99653.25;10424936;28;20480;-60
2023/07/26 16:19:31;;;;;;;2.47;1.00;;;;;;;19.67;49.98;99659.09;10425895;28;20053;-60
2023/07/26 16:24:36;;;;;;;1.35;1.00;;;;;;;19.66;50.19;99661.91;10419709;28;20521;-60
2023/07/26 16:29:38;;;;;;;1.23;0.70;;;;;;;19.76;50.46;99657.34;10409932;28;20408;-62
2023/07/26 16:34:43;;;;;;;3.97;1.02;;;;;;;19.44;50.82;99671.19;10425276;28;20051;-62
2023/07/26 16:39:45;;;;;;;1.65;0.90;;;;;;;19.17;51.25;99673.97;10428219;28;20063;-60
2023/07/26 16:44:47;;;;;;;0.98;0.75;;;;;;;19.14;51.52;99667.13;10420634;28;20060;-60
2023/07/26 16:49:49;;;;;;;1.42;0.88;;;;;;;19.05;52.80;99662.78;10424523;28;20570;-60
2023/07/26 16:54:52;;;;;;;2.35;0.90;;;;;;;18.77;54.30;99669.06;10423313;28;20578;-60
2023/07/26 16:59:54;;;;;;;0.98;0.80;;;;;;;18.75;54.55;99655.13;10422932;28;20064;-60
2023/07/26 17:04:56;;;;;;;1.88;1.05;;;;;;;18.69;55.11;99649.63;10437336;28;20510;-60
2023/07/26 17:09:58;;;;;;;1.30;0.90;;;;;;;19.02;55.39;99638.34;10425031;28;20063;-60
2023/07/26 17:15:00;;;;;;;2.25;1.20;;;;;;;19.48;55.03;99631.94;10419760;28;20059;-60
2023/07/26 17:20:05;;;;;;;3.10;1.20;;;;;;;19.73;54.80;99623.13;10422172;28;20057;-60
2023/07/26 17:25:07;;;;;;;1.13;0.88;;;;;;;19.53;54.72;99622.53;10420580;28;20126;-60
2023/07/26 17:30:10;;;;;;;2.75;1.08;;;;;;;19.30;54.66;99619.53;10419810;28;20033;-60
2023/07/26 17:35:12;;;;;;;1.35;1.02;;;;;;;19.23;55.01;99622.97;10419493;28;20049;-60
2023/07/26 17:40:14;;;;;;;1.85;1.13;;;;;;;19.23;55.37;99618.50;10418713;28;20507;-61
2023/07/26 17:45:16;;;;;;;1.55;1.02;;;;;;;19.07;55.00;99621.03;10422167;28;20467;-61
2023/07/26 17:50:18;;;;;;;1.63;1.20;;;;;;;18.95;55.21;99624.03;10425188;28;20408;-61
2023/07/26 17:55:20;;;;;;;1.38;1.10;;;;;;;18.74;55.78;99621.69;10422260;28;20767;-61
2023/07/26 18:00:22;;;;;;;2.40;1.25;;;;;;;18.49;56.24;99625.06;10418738;28;20505;-60
2023/07/26 18:05:24;;;;;;;2.10;1.00;;;;;;;18.25;56.33;99630.06;10419036;28;20470;-60
2023/07/26 18:10:26;;;;;;;2.15;1.10;;;;;;;17.86;56.92;99634.69;10412544;28;20400;-60
2023/07/26 18:15:29;;;;;;;3.13;1.50;;;;;;;17.72;57.67;99633.34;10412997;28;20047;-60
2023/07/26 18:20:32;;;;;;;1.33;0.90;;;;;;;17.63;58.23;99634.19;10418035;28;20053;-61
2023/07/26 18:25:35;;;;;;;2.45;1.25;;;;;;;17.51;59.77;99639.78;10417116;28;20075;-61
2023/07/26 18:30:37;;;;;;;1.05;0.90;;;;;;;17.42;58.98;99652.06;10417774;28;20053;-60
2023/07/26 18:35:42;;;;;;;2.55;1.20;;;;;;;17.23;59.31;99656.50;10417498;28;20045;-61
2023/07/26 18:40:44;;;;;;;4.20;1.42;;;;;;;17.21;60.02;99664.56;10417050;28;20146;-60
2023/07/26 18:45:46;;;;;;;1.58;1.10;;;;;;;17.09;60.20;99678.06;10414874;28;20084;-60
2023/07/26 18:50:51;;;;;;;1.10;1.00;;;;;;;16.90;60.60;99677.06;10419631;28;20063;-61
2023/07/26 18:55:55;;;;;;;1.00;0.90;;;;;;;16.87;60.87;99682.63;10417738;28;20060;-61
2023/07/26 19:00:57;;;;;;;1.70;1.00;;;;;;;16.80;61.07;99684.16;10420374;28;20102;-60
2023/07/26 19:05:59;;;;;;;2.95;1.40;;;;;;;16.81;60.80;99692.91;10417191;28;20138;-58
2023/07/26 19:11:01;;;;;;;1.38;1.10;;;;;;;16.84;60.87;99682.06;10418487;28;20052;-58
2023/07/26 19:16:04;;;;;;;2.13;1.35;;;;;;;16.80;60.79;99685.94;10422410;28;20579;-58
2023/07/26 19:21:07;;;;;;;1.33;1.15;;;;;;;16.80;60.91;99688.59;10418634;28;20504;-58
2023/07/26 19:26:15;;;;;;;3.40;1.17;;;;;;;16.74;61.38;99681.22;10413630;28;20886;-58
2023/07/26 19:31:17;;;;;;;1.50;1.00;;;;;;;16.58;61.63;99691.47;10412169;28;20223;-58
2023/07/26 19:36:19;;;;;;;5.03;1.13;;;;;;;16.39;61.88;99688.72;10424636;28;20412;-58
2023/07/26 19:41:21;;;;;;;2.88;1.10;;;;;;;16.36;62.47;99697.78;10426296;28;20416;-58
2023/07/26 19:46:23;;;;;;;2.05;1.20;;;;;;;16.48;62.33;99706.44;10430773;28;20060;-58
2023/07/26 19:51:26;;;;;;;1.45;1.20;;;;;;;16.47;62.14;99702.97;10430048;28;20052;-58
2023/07/26 19:56:28;;;;;;;1.35;1.00;;;;;;;16.48;62.12;99704.66;10429726;28;20642;-58
2023/07/26 20:01:30;;;;;;;1.67;1.15;;;;;;;16.48;62.23;99704.66;10431570;28;20486;-58
2023/07/26 20:06:32;;;;;;;1.38;1.15;;;;;;;16.42;62.16;99696.41;10424642;28;20135;-58
2023/07/26 20:11:35;;;;;;;2.95;1.65;;;;;;;16.44;62.40;99702.41;10429478;28;20560;-58
2023/07/26 20:16:37;;;;;;;1.75;1.13;;;;;;;16.47;62.68;99699.50;10425838;28;20559;-57
2023/07/26 20:21:39;;;;;;;9.85;1.48;;;;;;;16.53;62.33;99691.06;10429722;28;20126;-58
2023/07/26 20:26:41;;;;;;;1.67;1.15;;;;;;;16.45;62.33;99696.97;10426883;28;20501;-58
2023/07/26 20:31:43;;;;;;;2.05;1.40;;;;;;;16.34;62.55;99693.59;10424597;28;20063;-58
2023/07/26 20:36:45;;;;;;;2.20;1.40;;;;;;;16.26;62.84;99701.34;10421610;28;20044;-58
2023/07/26 20:41:47;;;;;;;1.15;1.05;;;;;;;16.24;62.74;99698.84;10419260;28;20656;-58
2023/07/26 20:46:49;;;;;;;1.83;1.38;;;;;;;16.18;62.96;99687.00;10426093;28;20223;-58
2023/07/26 20:51:51;;;;;;;2.45;1.23;;;;;;;16.09;62.99;99689.59;10422514;28;20520;-58
2023/07/26 20:56:53;;;;;;;1.83;1.33;;;;;;;15.94;62.91;99691.75;10427257;28;20399;-58
2023/07/26 21:01:55;;;;;;;3.67;1.20;;;;;;;15.80;63.09;99694.72;10427623;28;20043;-58
2023/07/26 21:06:57;;;;;;;2.80;1.25;;;;;;;15.69;63.45;99692.19;10423693;28;20901;-58
2023/07/26 21:12:00;;;;;;;2.42;1.20;;;;;;;15.61;63.33;99689.34;10425424;28;20044;-58
2023/07/26 21:17:02;;;;;;;8.27;1.98;;;;;;;15.48;63.86;99683.41;10424117;28;20060;-58
2023/07/26 21:22:04;;;;;;;2.40;1.17;;;;;;;15.48;63.93;99678.13;10425831;28;20422;-58
2023/07/26 21:27:07;;;;;;;6.90;1.92;;;;;;;15.50;63.69;99676.22;10422655;28;20080;-58
2023/07/26 21:32:10;;;;;;;5.22;1.58;;;;;;;15.50;63.66;99675.38;10422400;28;20250;-58
2023/07/26 21:37:12;;;;;;;1.08;0.93;;;;;;;15.47;63.94;99676.44;10425310;28;20056;-57
2023/07/26 21:42:14;;;;;;;5.00;1.40;;;;;;;15.39;63.98;99684.16;10423493;28;20053;-58
2023/07/26 21:47:16;;;;;;;1.90;1.20;;;;;;;15.34;64.34;99673.19;10423203;28;20163;-58
2023/07/26 21:52:18;;;;;;;2.10;1.30;;;;;;;15.27;64.40;99680.75;10424545;28;20473;-58
2023/07/26 21:57:20;;;;;;;3.22;1.42;;;;;;;15.26;64.57;99673.81;10420626;28;20772;-57
2023/07/26 22:02:22;;;;;;;15.00;2.00;;;;;;;15.21;64.41;99664.59;10423505;28;20056;-58
2023/07/26 22:07:24;;;;;;;1.95;1.40;;;;;;;15.10;64.56;99662.84;10422886;28;20121;-57
2023/07/26 22:12:26;;;;;;;1.90;1.40;;;;;;;15.05;64.36;99654.50;10422667;28;20041;-58
2023/07/26 22:17:28;;;;;;;5.97;1.58;;;;;;;14.97;64.45;99656.94;10423395;28;20144;-58
2023/07/26 22:22:30;;;;;;;2.17;1.38;;;;;;;14.88;64.99;99662.13;10454904;28;20040;-58
2023/07/26 22:27:33;;;;;;;2.63;1.50;;;;;;;14.74;64.97;99659.75;10423379;28;20052;-58
2023/07/26 22:32:35;;;;;;;2.15;1.30;;;;;;;14.57;65.38;99658.50;10422117;28;20102;-58
2023/07/26 22:37:37;;;;;;;2.05;1.33;;;;;;;14.66;65.59;99649.88;10422923;28;20052;-58
2023/07/26 22:42:39;;;;;;;5.38;1.63;;;;;;;14.65;65.90;99650.00;10420369;28;20045;-58
2023/07/26 22:47:41;;;;;;;10.77;1.83;;;;;;;14.73;65.69;99637.88;10423380;28;20106;-58
2023/07/26 22:52:43;;;;;;;1.90;1.40;;;;;;;14.73;65.85;99642.31;10424364;28;20044;-57
2023/07/26 22:57:45;;;;;;;23.67;1.92;;;;;;;14.58;65.87;99639.13;10421362;28;20033;-58
2023/07/26 23:02:47;;;;;;;2.45;1.20;;;;;;;14.57;66.11;99640.91;10422673;28;20067;-57
2023/07/26 23:07:50;;;;;;;5.70;1.20;;;;;;;14.56;65.96;99633.16;10423183;28;20041;-57
2023/07/26 23:12:52;;;;;;;1.48;1.17;;;;;;;14.47;66.26;99632.06;10430972;28;20135;-58
2023/07/26 23:17:54;;;;;;;3.78;1.30;;;;;;;14.50;66.26;99621.31;10431307;28;20059;-58
2023/07/26 23:22:56;;;;;;;1.13;0.95;;;;;;;14.42;66.28;99621.06;10431105;28;20041;-58
2023/07/26 23:27:58;;;;;;;3.45;1.38;;;;;;;14.30;66.86;99616.81;10429462;28;20045;-57